KWST/WST METAR and TAF weather

Enter ICAO airport designator
Station Type Date Time Source
KWST METAR 2019/06/17 04:53 UTC NOAA

KWST 170453Z AUTO 00000KT 5SM BR BKN055 OVC080 19/19 A2983 RMK AO2 SLP101 T01890189 402220172


Station Type Date Time Source
KWST Decoded METAR 2019/06/17 04:53 UTC NOAA

WESTERLY STATE AIRPORT, RI, United States (KWST) 41-21N 071-48W 21M
Jun 17, 2019 - 12:53 AM EDT / 2019.06.17 0453 UTC
Wind: Calm:0
Visibility: 5 mile(s):0
Sky conditions: overcast
Weather: mist
Temperature: 66.0 F (18.9 C)
Dew Point: 66.0 F (18.9 C)
Relative Humidity: 100%
Pressure (altimeter): 29.83 in. Hg (1010 hPa)
ob: KWST 170453Z AUTO 00000KT 5SM BR BKN055 OVC080 19/19 A2983 RMK AO2 SLP101 T01890189 402220172
cycle: 5

Station Type Date Time Source
KWST TAF UTC NOAA

Error!

Example: see airport list